createdAt,value
2023-01-15T00:00:30.033Z,9.763384
2023-01-15T00:01:30.040Z,9.763384
2023-01-15T00:02:30.044Z,9.763384
2023-01-15T00:03:30.018Z,9.763384
2023-01-15T00:04:29.982Z,9.763384
2023-01-15T00:05:29.969Z,9.763384
2023-01-15T00:06:29.956Z,9.763384
2023-01-15T00:07:29.950Z,9.763384
2023-01-15T00:08:29.943Z,9.763384
2023-01-15T00:09:29.919Z,9.763384
2023-01-15T00:10:29.919Z,9.763384
2023-01-15T00:11:30.759Z,9.763384
2023-01-15T00:12:29.900Z,9.763384
2023-01-15T00:13:29.925Z,9.763384
2023-01-15T00:14:29.877Z,9.763384
2023-01-15T00:15:29.867Z,9.763384
2023-01-15T00:16:29.850Z,9.763384
2023-01-15T00:17:29.828Z,9.763384
2023-01-15T00:18:30.844Z,9.763384
2023-01-15T00:19:29.853Z,9.763384
2023-01-15T00:20:29.816Z,9.763384
2023-01-15T00:21:29.799Z,9.763384
2023-01-15T00:22:29.795Z,9.763384
2023-01-15T00:23:29.798Z,9.763384
2023-01-15T00:24:29.765Z,9.763384
2023-01-15T00:25:29.763Z,9.763384
2023-01-15T00:26:29.738Z,9.763384
2023-01-15T00:27:29.740Z,9.763384
2023-01-15T00:28:29.733Z,9.763384
2023-01-15T00:29:29.732Z,9.763384
2023-01-15T00:30:29.711Z,9.763384
2023-01-15T00:31:29.739Z,9.763384
2023-01-15T00:32:29.687Z,9.763384
2023-01-15T00:33:29.679Z,9.763384
2023-01-15T00:34:29.668Z,9.763384
2023-01-15T00:35:29.660Z,9.763384
2023-01-15T00:36:30.755Z,9.763384
2023-01-15T00:37:29.631Z,9.763384
2023-01-15T00:38:29.626Z,9.763384
2023-01-15T00:39:29.629Z,9.763384
2023-01-15T00:40:29.612Z,9.763384
2023-01-15T00:41:30.748Z,9.763384
2023-01-15T00:42:29.580Z,9.763384
2023-01-15T00:43:29.574Z,9.763384
2023-01-15T00:44:29.602Z,9.763384
2023-01-15T00:45:29.547Z,9.763384
2023-01-15T00:46:29.543Z,9.763384
2023-01-15T00:47:30.260Z,9.763384
2023-01-15T00:48:30.516Z,9.763384
2023-01-15T00:49:29.530Z,9.763384
2023-01-15T00:50:29.498Z,9.763384
2023-01-15T00:51:29.494Z,9.763384
2023-01-15T00:52:29.480Z,9.763384
2023-01-15T00:53:29.469Z,9.763384
2023-01-15T00:54:29.479Z,9.763384
2023-01-15T00:55:29.449Z,9.763384
2023-01-15T00:56:29.445Z,9.763384
2023-01-15T00:57:29.423Z,9.763384
2023-01-15T00:58:29.424Z,9.763384
2023-01-15T00:59:29.415Z,9.763384
2023-01-15T01:00:29.464Z,9.763384
2023-01-15T01:01:29.466Z,9.763384
2023-01-15T01:02:29.517Z,9.763384
2023-01-15T01:03:29.364Z,9.763384
2023-01-15T01:04:29.366Z,9.763384
2023-01-15T01:05:29.332Z,9.763384
2023-01-15T01:06:30.285Z,9.763384
2023-01-15T01:07:29.315Z,9.763384
2023-01-15T01:08:29.308Z,9.763384
2023-01-15T01:09:29.300Z,9.763384
2023-01-15T01:10:29.300Z,9.763384
2023-01-15T01:11:29.271Z,9.763384
2023-01-15T01:12:29.271Z,9.763384
2023-01-15T01:13:29.270Z,9.763384
2023-01-15T01:14:29.264Z,9.763384
2023-01-15T01:15:29.260Z,9.763384
2023-01-15T01:16:29.251Z,9.763384
2023-01-15T01:17:29.217Z,9.763384
2023-01-15T01:18:29.207Z,9.763384
2023-01-15T01:19:29.196Z,9.763384
2023-01-15T01:20:29.192Z,9.763384
2023-01-15T01:21:29.180Z,9.763384
2023-01-15T01:22:29.173Z,9.763384
2023-01-15T01:23:29.154Z,9.763384
2023-01-15T01:24:29.153Z,9.763384
2023-01-15T01:25:29.146Z,9.763384
2023-01-15T01:26:29.130Z,9.763384
2023-01-15T01:27:29.109Z,9.763384
2023-01-15T01:28:29.097Z,9.763384
2023-01-15T01:29:29.105Z,9.763384
2023-01-15T01:30:29.091Z,9.763384
2023-01-15T01:31:29.091Z,9.763384
2023-01-15T01:32:29.069Z,9.763384
2023-01-15T01:33:29.051Z,9.763384
2023-01-15T01:34:29.029Z,9.763384
2023-01-15T01:35:29.041Z,9.763384
2023-01-15T01:36:29.015Z,9.763384
2023-01-15T01:37:29.006Z,9.763384
2023-01-15T01:38:28.989Z,9.763384
2023-01-15T01:39:28.990Z,9.763384
2023-01-15T01:40:28.990Z,9.763384
2023-01-15T01:41:28.970Z,9.763384
2023-01-15T01:42:28.968Z,9.763384
2023-01-15T01:43:29.966Z,9.763384
2023-01-15T01:44:28.947Z,9.763384
2023-01-15T01:45:29.013Z,9.763384
2023-01-15T01:46:28.927Z,9.763384
2023-01-15T01:47:28.904Z,9.763384
2023-01-15T01:48:28.891Z,9.763384
2023-01-15T01:49:28.883Z,9.763384
2023-01-15T01:50:28.885Z,9.763384
2023-01-15T01:51:28.867Z,9.763384
2023-01-15T01:52:28.855Z,9.763384
2023-01-15T01:53:28.847Z,9.763384
2023-01-15T01:54:28.833Z,9.763384
2023-01-15T01:55:28.832Z,9.763384
2023-01-15T01:56:28.813Z,9.763384
2023-01-15T01:57:28.798Z,9.763384
2023-01-15T01:58:28.788Z,9.763384
2023-01-15T01:59:28.767Z,9.763384
2023-01-15T02:00:28.759Z,9.763384
2023-01-15T02:01:28.923Z,9.763384
2023-01-15T02:02:28.790Z,9.763384
2023-01-15T02:03:28.742Z,9.763384
2023-01-15T02:04:28.728Z,9.763384
2023-01-15T02:05:28.713Z,9.763384
2023-01-15T02:06:28.711Z,9.763384
2023-01-15T02:07:28.684Z,9.763384
2023-01-15T02:08:28.680Z,9.763384
2023-01-15T02:09:28.666Z,9.763384
2023-01-15T02:10:28.649Z,9.763384
2023-01-15T02:11:28.655Z,9.763384
2023-01-15T02:12:28.641Z,9.763384
2023-01-15T02:13:28.623Z,9.763384
2023-01-15T02:14:28.604Z,9.763384
2023-01-15T02:15:28.603Z,9.763384
2023-01-15T02:16:28.716Z,9.763384
2023-01-15T02:17:28.568Z,9.763384
2023-01-15T02:18:28.571Z,9.763384
2023-01-15T02:19:28.551Z,9.763384
2023-01-15T02:20:28.552Z,9.763384
2023-01-15T02:21:28.537Z,9.763384
2023-01-15T02:22:28.524Z,9.763384
2023-01-15T02:23:28.537Z,9.763384
2023-01-15T02:24:28.494Z,9.763384
2023-01-15T02:25:28.532Z,9.763384
2023-01-15T02:26:28.498Z,9.763384
2023-01-15T02:27:28.466Z,9.763384
2023-01-15T02:28:28.460Z,9.763384
2023-01-15T02:29:28.447Z,9.763384
2023-01-15T02:30:28.456Z,9.763384
2023-01-15T02:31:28.481Z,9.763384
2023-01-15T02:32:28.421Z,9.763384
2023-01-15T02:33:28.402Z,9.763384
2023-01-15T02:34:28.405Z,9.763384
2023-01-15T02:35:28.384Z,9.763384
2023-01-15T02:36:28.399Z,9.763384
2023-01-15T02:37:28.382Z,9.763384
2023-01-15T02:38:28.353Z,9.763384
2023-01-15T02:39:28.342Z,9.763384
2023-01-15T02:40:28.326Z,9.763384
2023-01-15T02:41:28.341Z,9.763384
2023-01-15T02:42:28.302Z,9.763384
2023-01-15T02:43:28.307Z,9.763384
2023-01-15T02:44:28.278Z,9.763384
2023-01-15T02:45:29.307Z,9.763384
2023-01-15T02:46:28.281Z,9.763384
2023-01-15T02:47:28.262Z,9.763384
2023-01-15T02:48:28.256Z,9.763384
2023-01-15T02:49:28.239Z,9.763384
2023-01-15T02:50:28.230Z,9.763384
2023-01-15T02:51:28.223Z,9.763384
2023-01-15T02:52:28.205Z,9.763384
2023-01-15T02:53:28.209Z,9.763384
2023-01-15T02:54:28.223Z,9.763384
2023-01-15T02:55:28.182Z,9.763384
2023-01-15T02:56:28.184Z,9.763384
2023-01-15T02:57:28.162Z,9.763384
2023-01-15T02:58:28.137Z,9.763384
2023-01-15T02:59:28.129Z,9.763384
2023-01-15T03:00:28.125Z,9.763384
2023-01-15T03:01:28.318Z,9.763384
2023-01-15T03:02:28.155Z,9.763384
2023-01-15T03:03:28.092Z,9.763384
2023-01-15T03:04:28.090Z,9.763384
2023-01-15T03:05:28.071Z,9.763384
2023-01-15T03:06:28.073Z,9.763384
2023-01-15T03:07:28.060Z,9.763384
2023-01-15T03:08:28.034Z,9.763384
2023-01-15T03:09:28.026Z,9.763384
2023-01-15T03:10:28.029Z,9.763384
2023-01-15T03:11:28.000Z,9.763384
2023-01-15T03:12:27.993Z,9.763384
2023-01-15T03:13:27.981Z,9.763384
2023-01-15T03:14:27.967Z,9.763384
2023-01-15T03:15:27.959Z,9.763384
2023-01-15T03:16:28.022Z,9.763384
2023-01-15T03:17:27.953Z,9.763384
2023-01-15T03:18:27.930Z,9.763384
2023-01-15T03:19:27.931Z,9.763384
2023-01-15T03:20:27.905Z,9.763384
2023-01-15T03:21:27.898Z,9.763384
2023-01-15T03:22:27.886Z,9.763384
2023-01-15T03:23:27.889Z,9.763384
2023-01-15T03:24:28.860Z,9.763384
2023-01-15T03:25:27.915Z,9.763384
2023-01-15T03:26:27.902Z,9.763384
2023-01-15T03:27:27.886Z,9.763384
2023-01-15T03:28:27.821Z,9.763384
2023-01-15T03:29:27.807Z,9.763384
2023-01-15T03:30:27.838Z,9.763384
2023-01-15T03:31:27.781Z,9.763384
2023-01-15T03:32:27.777Z,9.763384
2023-01-15T03:33:27.758Z,9.763384
2023-01-15T03:34:27.759Z,9.763384
2023-01-15T03:35:27.761Z,9.763384
2023-01-15T03:36:27.761Z,9.763384
2023-01-15T03:37:27.736Z,9.763384
2023-01-15T03:38:27.708Z,9.763384
2023-01-15T03:39:27.701Z,9.763384
2023-01-15T03:40:27.682Z,9.763384
2023-01-15T03:41:27.671Z,9.763384
2023-01-15T03:42:27.669Z,9.763384
2023-01-15T03:43:27.653Z,9.763384
2023-01-15T03:44:27.651Z,9.763384
2023-01-15T03:45:27.640Z,9.763384
2023-01-15T03:46:27.621Z,9.763384
2023-01-15T03:47:27.622Z,9.763384
2023-01-15T03:48:27.599Z,9.763384
2023-01-15T03:49:27.593Z,9.763384
2023-01-15T03:50:27.593Z,9.763384
2023-01-15T03:51:27.562Z,9.763384
2023-01-15T03:52:27.559Z,9.763384
2023-01-15T03:53:27.539Z,9.763384
2023-01-15T03:54:27.531Z,9.763384
2023-01-15T03:55:27.516Z,9.763384
2023-01-15T03:56:27.513Z,9.763384
2023-01-15T03:57:27.503Z,9.763384
2023-01-15T03:58:27.493Z,9.763384
2023-01-15T03:59:27.479Z,9.763384
2023-01-15T04:00:27.498Z,9.763384
2023-01-15T04:01:27.564Z,9.763384
2023-01-15T04:02:27.467Z,9.763384
2023-01-15T04:03:27.442Z,9.763384
2023-01-15T04:04:27.465Z,9.763384
2023-01-15T04:05:27.427Z,9.763384
2023-01-15T04:06:28.407Z,9.763384
2023-01-15T04:07:27.407Z,9.763384
2023-01-15T04:08:27.396Z,9.763384
2023-01-15T04:09:27.381Z,9.763384
2023-01-15T04:10:27.381Z,9.763384
2023-01-15T04:11:27.351Z,9.763384
2023-01-15T04:12:27.361Z,9.763384
2023-01-15T04:13:29.352Z,9.763384
2023-01-15T04:14:27.319Z,9.763384
2023-01-15T04:15:27.367Z,9.763384
2023-01-15T04:16:27.312Z,9.763384
2023-01-15T04:17:27.311Z,9.763384
2023-01-15T04:18:27.277Z,9.763384
2023-01-15T04:19:27.272Z,9.763384
2023-01-15T04:20:27.265Z,9.763384
2023-01-15T04:21:27.254Z,9.763384
2023-01-15T04:22:27.250Z,9.763384
2023-01-15T04:23:27.241Z,9.763384
2023-01-15T04:24:27.223Z,9.763384
2023-01-15T04:25:27.250Z,9.763384
2023-01-15T04:26:27.202Z,9.763384
2023-01-15T04:27:27.188Z,9.763384
2023-01-15T04:28:27.186Z,9.763384
2023-01-15T04:29:27.168Z,9.763384
2023-01-15T04:30:27.156Z,9.763384
2023-01-15T04:31:27.145Z,9.763384
2023-01-15T04:32:27.132Z,9.763384
2023-01-15T04:33:27.134Z,9.763384
2023-01-15T04:34:27.123Z,9.763384
2023-01-15T04:35:27.112Z,9.763384
2023-01-15T04:36:27.093Z,9.763384
2023-01-15T04:37:27.083Z,9.763384
2023-01-15T04:38:27.093Z,9.763384
2023-01-15T04:39:27.063Z,9.763384
2023-01-15T04:40:27.049Z,9.763384
2023-01-15T04:41:27.045Z,9.763384
2023-01-15T04:42:27.038Z,9.763384
2023-01-15T04:43:27.028Z,9.763384
2023-01-15T04:44:27.029Z,9.763384
2023-01-15T04:45:27.006Z,9.763384
2023-01-15T04:46:27.008Z,9.763384
2023-01-15T04:47:26.982Z,9.763384
2023-01-15T04:48:26.997Z,9.763384
2023-01-15T04:49:26.954Z,9.763384
2023-01-15T04:50:26.947Z,9.763384
2023-01-15T04:51:26.944Z,9.763384
2023-01-15T04:52:26.937Z,9.763384
2023-01-15T04:53:26.930Z,9.763384
2023-01-15T04:54:26.905Z,9.763384
2023-01-15T04:55:26.898Z,9.763384
2023-01-15T04:56:26.889Z,9.763384
2023-01-15T04:57:26.889Z,9.763384
2023-01-15T04:58:26.878Z,9.763384
2023-01-15T04:59:26.857Z,9.763384
2023-01-15T05:00:27.842Z,9.763384
2023-01-15T05:01:26.936Z,9.763384
2023-01-15T05:02:26.999Z,9.763384
2023-01-15T05:03:26.840Z,9.763384
2023-01-15T05:04:26.842Z,9.763384
2023-01-15T05:05:26.804Z,9.763384
2023-01-15T05:06:26.786Z,9.763384
2023-01-15T05:07:26.775Z,9.763384
2023-01-15T05:08:26.769Z,9.763384
2023-01-15T05:09:26.756Z,9.763384
2023-01-15T05:10:26.750Z,9.763384
2023-01-15T05:11:26.739Z,9.763384
2023-01-15T05:12:27.725Z,9.763384
2023-01-15T05:13:26.728Z,9.763384
2023-01-15T05:14:26.697Z,9.763384
2023-01-15T05:15:26.691Z,9.763384
2023-01-15T05:16:26.689Z,9.763384
2023-01-15T05:17:26.676Z,9.763384
2023-01-15T05:18:26.677Z,9.763384
2023-01-15T05:19:26.644Z,9.763384
2023-01-15T05:20:26.637Z,9.763384
2023-01-15T05:21:26.634Z,9.763384
2023-01-15T05:22:26.622Z,9.763384
2023-01-15T05:23:26.625Z,9.763384
2023-01-15T05:24:26.605Z,9.763384
2023-01-15T05:25:26.585Z,9.763384
2023-01-15T05:26:26.587Z,9.763384
2023-01-15T05:27:26.573Z,9.763384
2023-01-15T05:28:26.554Z,9.763384
2023-01-15T05:29:26.574Z,9.763384
2023-01-15T05:30:26.541Z,9.763384
2023-01-15T05:31:26.582Z,9.763384
2023-01-15T05:32:26.517Z,9.763384
2023-01-15T05:33:26.495Z,9.763384
2023-01-15T05:34:26.501Z,9.763384
2023-01-15T05:35:26.476Z,9.763384
2023-01-15T05:36:26.476Z,9.763384
2023-01-15T05:37:26.450Z,9.763384
2023-01-15T05:38:26.452Z,9.763384
2023-01-15T05:39:26.441Z,9.763384
2023-01-15T05:40:26.436Z,9.763384
2023-01-15T05:41:26.425Z,9.763384
2023-01-15T05:42:26.414Z,9.763384
2023-01-15T05:43:26.393Z,9.763384
2023-01-15T05:44:26.404Z,9.762784
2023-01-15T05:45:26.384Z,9.762840
2023-01-15T05:46:26.383Z,9.762645
2023-01-15T05:47:26.360Z,9.762663
2023-01-15T05:48:26.360Z,9.763084
2023-01-15T05:49:26.368Z,9.763009
2023-01-15T05:50:28.381Z,9.762826
2023-01-15T05:51:26.311Z,9.762661
2023-01-15T05:52:26.307Z,9.762779
2023-01-15T05:53:26.295Z,9.762607
2023-01-15T05:54:26.319Z,9.762496
2023-01-15T05:55:26.273Z,9.762826
2023-01-15T05:56:26.275Z,9.762779
2023-01-15T05:57:26.258Z,9.762813
2023-01-15T05:58:26.246Z,9.762783
2023-01-15T05:59:26.269Z,9.762731
2023-01-15T06:00:26.231Z,9.762657
2023-01-15T06:01:26.231Z,9.762688
2023-01-15T06:02:26.225Z,9.762681
2023-01-15T06:03:26.200Z,9.762734
2023-01-15T06:04:26.190Z,9.762744
2023-01-15T06:05:26.183Z,9.762725
2023-01-15T06:06:26.170Z,9.762784
2023-01-15T06:07:26.162Z,9.762718
2023-01-15T06:08:26.150Z,9.762693
2023-01-15T06:09:26.147Z,9.762693
2023-01-15T06:10:27.128Z,9.762693
2023-01-15T06:11:26.117Z,9.762693
2023-01-15T06:12:26.105Z,9.762693
2023-01-15T06:13:26.111Z,9.762693
2023-01-15T06:14:26.112Z,9.762689
2023-01-15T06:15:26.082Z,9.762773
2023-01-15T06:16:26.070Z,9.762773
2023-01-15T06:17:26.064Z,9.762773
2023-01-15T06:18:26.062Z,9.762773
2023-01-15T06:19:26.057Z,9.762773
2023-01-15T06:20:26.043Z,9.762773
2023-01-15T06:21:26.015Z,9.762773
2023-01-15T06:22:26.015Z,9.762773
2023-01-15T06:23:25.996Z,9.762851
2023-01-15T06:24:26.000Z,9.762807
2023-01-15T06:25:25.982Z,9.762807
2023-01-15T06:26:25.972Z,9.762714
2023-01-15T06:27:25.969Z,9.762714
2023-01-15T06:28:25.947Z,9.762827
2023-01-15T06:29:25.948Z,9.762794
2023-01-15T06:30:25.929Z,9.762681
2023-01-15T06:31:25.950Z,9.762749
2023-01-15T06:32:25.901Z,9.762823
2023-01-15T06:33:25.905Z,9.763109
2023-01-15T06:34:25.904Z,9.763111
2023-01-15T06:35:25.892Z,9.763111
2023-01-15T06:36:25.868Z,9.763111
2023-01-15T06:37:25.859Z,9.763111
2023-01-15T06:38:25.857Z,9.763111
2023-01-15T06:39:25.863Z,9.762807
2023-01-15T06:40:25.828Z,9.762827
2023-01-15T06:41:25.828Z,9.762827
2023-01-15T06:42:25.797Z,9.762595
2023-01-15T06:43:25.826Z,9.762702
2023-01-15T06:44:28.225Z,9.762598
2023-01-15T06:45:25.790Z,9.762956
2023-01-15T06:46:25.783Z,9.762856
2023-01-15T06:47:25.769Z,9.762838
2023-01-15T06:48:25.748Z,9.762733
2023-01-15T06:49:25.738Z,9.762767
2023-01-15T06:50:25.748Z,9.762810
2023-01-15T06:51:25.723Z,9.762785
2023-01-15T06:52:25.731Z,9.762571
2023-01-15T06:53:25.699Z,9.762605
2023-01-15T06:54:25.691Z,9.762621
2023-01-15T06:55:25.683Z,9.762696
2023-01-15T06:56:25.671Z,9.762679
2023-01-15T06:57:25.669Z,9.762838
2023-01-15T06:58:25.649Z,9.762517
2023-01-15T06:59:25.653Z,9.762493
2023-01-15T07:00:25.672Z,9.763086
2023-01-15T07:01:25.717Z,9.762655
2023-01-15T07:02:25.622Z,9.762702
2023-01-15T07:03:25.609Z,9.762665
2023-01-15T07:04:25.602Z,9.762489
2023-01-15T07:05:25.594Z,9.762688
2023-01-15T07:06:26.511Z,9.762681
2023-01-15T07:07:26.565Z,9.762830
2023-01-15T07:08:25.554Z,9.762980
2023-01-15T07:09:25.570Z,9.762877
2023-01-15T07:10:25.563Z,9.762856
2023-01-15T07:11:25.537Z,9.762793
2023-01-15T07:12:25.537Z,9.762728
2023-01-15T07:13:25.509Z,9.762942
2023-01-15T07:14:25.510Z,9.762832
2023-01-15T07:15:25.495Z,9.762744
2023-01-15T07:16:25.498Z,9.762920
2023-01-15T07:17:25.478Z,9.762905
2023-01-15T07:18:25.459Z,9.762905
2023-01-15T07:19:25.455Z,9.762905
2023-01-15T07:20:25.448Z,9.762905
2023-01-15T07:21:25.431Z,10.217422
2023-01-15T07:22:25.414Z,10.217422
2023-01-15T07:23:25.416Z,10.217422
2023-01-15T07:24:25.408Z,10.217422
2023-01-15T07:25:25.395Z,10.217422
2023-01-15T07:26:25.371Z,10.217422
2023-01-15T07:27:25.371Z,10.217422
2023-01-15T07:28:25.385Z,10.217422
2023-01-15T07:29:26.352Z,10.217422
2023-01-15T07:30:25.353Z,10.217422
2023-01-15T07:31:25.351Z,10.217422
2023-01-15T07:32:25.314Z,10.217422
2023-01-15T07:33:25.297Z,10.217422
2023-01-15T07:34:26.307Z,10.217422
2023-01-15T07:35:25.904Z,10.217422
2023-01-15T07:36:25.279Z,10.217422
2023-01-15T07:37:26.849Z,10.217422
2023-01-15T07:39:20.524Z,10.217422
2023-01-15T07:39:25.310Z,10.217422
2023-01-15T07:40:25.284Z,10.217422
2023-01-15T07:41:25.300Z,10.217422
2023-01-15T07:42:25.245Z,10.217422
2023-01-15T07:43:25.221Z,10.217422
2023-01-15T07:44:25.210Z,10.217422
2023-01-15T07:45:25.233Z,10.217422
2023-01-15T07:46:25.195Z,10.217422
2023-01-15T07:47:25.177Z,10.217422
2023-01-15T07:48:25.167Z,10.217422
2023-01-15T07:49:25.157Z,10.217422
2023-01-15T07:50:25.155Z,10.217422
2023-01-15T07:51:25.147Z,10.217422
2023-01-15T07:52:25.134Z,10.217422
2023-01-15T07:53:25.138Z,10.217422
2023-01-15T07:54:25.107Z,10.217422
2023-01-15T07:55:25.120Z,10.217422
2023-01-15T07:56:25.120Z,10.217422
2023-01-15T07:57:25.073Z,10.217422
2023-01-15T07:58:25.070Z,10.217422
2023-01-15T07:59:25.083Z,10.217422
2023-01-15T08:00:25.053Z,10.217422
2023-01-15T08:01:25.100Z,10.217422
2023-01-15T08:02:25.043Z,10.217422
2023-01-15T08:03:25.019Z,10.217422
2023-01-15T08:04:24.997Z,10.217422
2023-01-15T08:05:24.999Z,10.217422
2023-01-15T08:06:25.002Z,10.217422
2023-01-15T08:07:24.969Z,10.217422
2023-01-15T08:08:24.971Z,10.217422
2023-01-15T08:09:24.957Z,10.217422
2023-01-15T08:10:24.949Z,10.217422
2023-01-15T08:11:24.955Z,10.217422
2023-01-15T08:12:24.926Z,10.217422
2023-01-15T08:13:24.920Z,10.217422
2023-01-15T08:14:24.914Z,10.217422
2023-01-15T08:15:24.895Z,10.217422
2023-01-15T08:16:24.919Z,10.217422
2023-01-15T08:17:24.906Z,10.217422
2023-01-15T08:18:24.868Z,10.217422
2023-01-15T08:19:24.867Z,10.217422
2023-01-15T08:20:24.857Z,10.217422
2023-01-15T08:21:24.834Z,10.217422
2023-01-15T08:22:24.839Z,10.217422
2023-01-15T08:23:24.823Z,10.217422
2023-01-15T08:24:24.822Z,10.217422
2023-01-15T08:25:24.811Z,10.217422
2023-01-15T08:26:24.797Z,10.217422
2023-01-15T08:27:24.802Z,10.217422
2023-01-15T08:28:24.781Z,10.217422
2023-01-15T08:29:24.768Z,10.217422
2023-01-15T08:30:24.745Z,10.217422
2023-01-15T08:31:24.800Z,10.217422
2023-01-15T08:32:24.735Z,10.217422
2023-01-15T08:33:24.727Z,10.217422
2023-01-15T08:34:24.722Z,10.217422
2023-01-15T08:35:24.698Z,10.217422
2023-01-15T08:36:24.703Z,10.217422
2023-01-15T08:37:25.503Z,10.217422
2023-01-15T08:38:25.689Z,10.217422
2023-01-15T08:39:24.656Z,10.217422
2023-01-15T08:40:24.657Z,10.217422
2023-01-15T08:41:24.637Z,10.217422
2023-01-15T08:42:24.641Z,10.217422
2023-01-15T08:43:24.620Z,10.217422
2023-01-15T08:44:24.705Z,10.217422
2023-01-15T08:45:24.779Z,10.217422
2023-01-15T08:46:24.603Z,10.217422
2023-01-15T08:47:24.597Z,10.217422
2023-01-15T08:48:24.557Z,10.217422
2023-01-15T08:49:24.553Z,10.217422
2023-01-15T08:50:24.612Z,10.217422
2023-01-15T08:51:24.526Z,10.217422
2023-01-15T08:52:24.543Z,10.217422
2023-01-15T08:53:24.509Z,10.217422
2023-01-15T08:54:24.515Z,10.217422
2023-01-15T08:55:24.493Z,10.217422
2023-01-15T08:56:24.487Z,10.217422
2023-01-15T08:57:24.483Z,10.217422
2023-01-15T08:58:24.484Z,10.217422
2023-01-15T08:59:24.468Z,10.217422
2023-01-15T09:00:24.511Z,10.217422
2023-01-15T09:01:24.597Z,10.217422
2023-01-15T09:02:25.375Z,10.217422
2023-01-15T09:03:24.427Z,10.217422
2023-01-15T09:04:24.448Z,10.217422
2023-01-15T09:05:24.384Z,10.217422
2023-01-15T09:06:24.370Z,10.217422
2023-01-15T09:07:24.440Z,10.217422
2023-01-15T09:08:24.373Z,10.217422
2023-01-15T09:09:24.344Z,10.217422
2023-01-15T09:10:24.339Z,10.217422
2023-01-15T09:11:24.344Z,10.217422
2023-01-15T09:12:24.316Z,10.217422
2023-01-15T09:13:24.340Z,10.217422
2023-01-15T09:14:57.836Z,10.217422
2023-01-15T09:15:25.275Z,10.217422
2023-01-15T09:16:24.277Z,10.217422
2023-01-15T09:17:24.256Z,10.217422
2023-01-15T09:18:24.425Z,10.217422
2023-01-15T09:19:24.239Z,10.217422
2023-01-15T09:20:24.232Z,10.217422
2023-01-15T09:21:24.230Z,10.217422
2023-01-15T09:22:24.216Z,10.217422
2023-01-15T09:23:24.215Z,10.217422
2023-01-15T09:24:24.195Z,10.217422
2023-01-15T09:25:24.184Z,10.217422
2023-01-15T09:26:24.172Z,10.217422
2023-01-15T09:27:24.183Z,10.217422
2023-01-15T09:28:24.171Z,10.217422
2023-01-15T09:29:24.138Z,10.217422
2023-01-15T09:30:24.136Z,10.217422
2023-01-15T09:31:24.123Z,10.217422
2023-01-15T09:32:24.124Z,10.217422
2023-01-15T09:33:24.103Z,10.217422
2023-01-15T09:34:24.100Z,10.217422
2023-01-15T09:35:24.083Z,10.217422
2023-01-15T09:36:24.080Z,10.217422
2023-01-15T09:37:24.058Z,10.217422
2023-01-15T09:38:24.052Z,10.217422
2023-01-15T09:39:24.049Z,10.217422
2023-01-15T09:40:24.034Z,10.217422
2023-01-15T09:41:24.023Z,10.217422
2023-01-15T09:42:24.019Z,10.217422
2023-01-15T09:43:24.010Z,10.217422
2023-01-15T09:44:24.012Z,10.217422
2023-01-15T09:45:23.984Z,10.217422
2023-01-15T09:46:24.011Z,10.217422
2023-01-15T09:47:23.972Z,10.217422
2023-01-15T09:48:23.954Z,10.217422
2023-01-15T09:49:23.960Z,10.217422
2023-01-15T09:50:23.934Z,10.217422
2023-01-15T09:51:23.927Z,10.217422
2023-01-15T09:52:23.911Z,10.217422
2023-01-15T09:53:23.901Z,10.217422
2023-01-15T09:54:23.903Z,10.217422
2023-01-15T09:55:23.935Z,10.217422
2023-01-15T09:56:23.890Z,10.217422
2023-01-15T09:57:23.901Z,10.217422
2023-01-15T09:58:23.877Z,10.217422
2023-01-15T09:59:23.880Z,10.217422
2023-01-15T10:00:23.856Z,10.217422
2023-01-15T10:01:23.845Z,10.217422
2023-01-15T10:02:23.820Z,10.217422
2023-01-15T10:03:23.924Z,10.217422
2023-01-15T10:04:23.846Z,10.217422
2023-01-15T10:05:23.811Z,10.217422
2023-01-15T10:06:23.793Z,10.217422
2023-01-15T10:07:23.775Z,10.217422
2023-01-15T10:08:23.765Z,10.217422
2023-01-15T10:09:23.771Z,10.217422
2023-01-15T10:10:23.733Z,10.217422
2023-01-15T10:11:23.713Z,10.217422
2023-01-15T10:12:23.712Z,10.217422
2023-01-15T10:13:23.712Z,10.217422
2023-01-15T10:14:23.704Z,10.217422
2023-01-15T10:15:23.684Z,10.217422
2023-01-15T10:16:23.689Z,10.217422
2023-01-15T10:17:23.665Z,10.217422
2023-01-15T10:18:23.639Z,10.217422
2023-01-15T10:19:23.634Z,10.217422
2023-01-15T10:20:23.647Z,10.217422
2023-01-15T10:21:23.617Z,10.217422
2023-01-15T10:22:23.618Z,10.217422
2023-01-15T10:23:23.605Z,10.217422
2023-01-15T10:24:23.600Z,10.217422
2023-01-15T10:25:23.579Z,10.217422
2023-01-15T10:26:23.563Z,10.217422
2023-01-15T10:27:23.560Z,10.217422
2023-01-15T10:28:23.546Z,10.217422
2023-01-15T10:29:23.539Z,10.217422
2023-01-15T10:30:23.528Z,10.217422
2023-01-15T10:31:23.574Z,10.217422
2023-01-15T10:32:23.510Z,10.217422
2023-01-15T10:33:23.498Z,10.217422
2023-01-15T10:34:23.485Z,10.217422
2023-01-15T10:35:23.487Z,10.217422
2023-01-15T10:36:23.485Z,10.217422
2023-01-15T10:37:23.460Z,10.217422
2023-01-15T10:38:23.445Z,10.217422
2023-01-15T10:39:23.446Z,10.217422
2023-01-15T10:40:23.447Z,10.217422
2023-01-15T10:41:23.395Z,10.217422
2023-01-15T10:42:24.409Z,10.217422
2023-01-15T10:43:23.383Z,10.217422
2023-01-15T10:44:23.399Z,10.217422
2023-01-15T10:45:23.376Z,10.217422
2023-01-15T10:46:23.407Z,10.217422
2023-01-15T10:47:23.361Z,10.217422
2023-01-15T10:48:23.340Z,10.217422
2023-01-15T10:49:23.348Z,10.217422
2023-01-15T10:50:23.332Z,10.217422
2023-01-15T10:51:23.300Z,10.217422
2023-01-15T10:52:23.293Z,10.217422
2023-01-15T10:53:23.275Z,10.217422
2023-01-15T10:54:23.284Z,10.217422
2023-01-15T10:55:23.275Z,10.217422
2023-01-15T10:56:23.251Z,10.217422
2023-01-15T10:57:23.245Z,10.217422
2023-01-15T10:58:23.226Z,10.217422
2023-01-15T10:59:23.218Z,10.217422
2023-01-15T11:00:23.247Z,10.217422
2023-01-15T11:01:23.331Z,10.217422
2023-01-15T11:02:23.325Z,10.217422
2023-01-15T11:03:23.191Z,10.217422
2023-01-15T11:04:23.173Z,10.217422
2023-01-15T11:05:23.150Z,10.217422
2023-01-15T11:06:23.150Z,10.217422
2023-01-15T11:07:23.369Z,10.217422
2023-01-15T11:09:25.157Z,10.217422
2023-01-15T11:10:23.140Z,10.217422
2023-01-15T11:11:23.135Z,10.217422
2023-01-15T11:12:23.097Z,10.217422
2023-01-15T11:13:23.094Z,10.217422
2023-01-15T11:14:23.128Z,10.217422
2023-01-15T11:15:23.092Z,10.217422
2023-01-15T11:16:23.096Z,10.217422
2023-01-15T11:17:23.093Z,10.217422
2023-01-15T11:18:23.100Z,10.217422
2023-01-15T11:19:23.065Z,10.217422
2023-01-15T11:20:23.038Z,10.217422
2023-01-15T11:21:23.087Z,10.217422
2023-01-15T11:22:23.050Z,10.217422
2023-01-15T11:23:23.040Z,10.217422
2023-01-15T11:24:22.998Z,10.217422
2023-01-15T11:25:23.031Z,10.217422
2023-01-15T11:26:23.008Z,10.217422
2023-01-15T11:27:23.008Z,10.217422
2023-01-15T11:28:22.973Z,10.217422
2023-01-15T11:29:22.931Z,10.217422
2023-01-15T11:30:22.983Z,10.217422
2023-01-15T11:31:22.968Z,10.217422
2023-01-15T11:32:22.947Z,10.217422
2023-01-15T11:33:22.950Z,10.217422
2023-01-15T11:34:22.915Z,10.217422
2023-01-15T11:35:22.907Z,10.217422
2023-01-15T11:36:22.923Z,10.217422
2023-01-15T11:37:22.884Z,10.217422